Terminal Aerodrome Forecast
Issued by NWS Topeka, KS

Home | Current Version | Previous Version | Text Only | Print | Product List | Glossary Off
Versions: 1 2 3 4 5 6 7 8 9 10 11 12 13 14 15 16

000
FTUS43 KTOP 290500
TAFTOP
TAF
KTOP 290527Z 2906/3006 31014G21KT P6SM FEW250
     FM290900 34018G27KT P6SM BKN020
     FM291900 34014G21KT P6SM SCT025
     FM300000 34009KT P6SM SKC=

USA.gov is the U.S. government's official web portal to all federal, state and local government web resources and services.